Airfield :
LOGIN :

Register | Disclaimer

   EN    FR    IT 

 










Legend :    VFR   Marginal VFR   IFR   Intensive IFR   Very Intensive IFR
Visi :
Ceiling :
>= 8 km
>= 3000ft
5 to 8 km
1000 to 3000 ft
1500m to 5 km
500 to 1000 ft
800 to 1500m
200 to 500 ft
< 800m
< 200 ft
Symbols :   Thunderstorms  Fog  Heavy snow  Heavy precipitations  Wind > 20 kt
SIGMETs :     Misc.  Thunderstorms  Icing  Turbulence  Mountain Waves  Volcanic Ashes







- Airport Elevation : 978 ft
- IATA code : LNZ


LOWL - Linz

CURRENT METAR :
  • 201850Z AUTO 07010KT 9999 BKN100 01/M00 Q1002 R08/29//95 NOSIG

EXPIRED METARs :
  • 201820Z AUTO 07011KT 9999 FEW100 01/M00 Q1003 R08/29//95 NOSIG
  • 201750Z AUTO 07008KT 9999 FEW140 01/M00 Q1004 R08/29//95 NOSIG
  • 201720Z AUTO 08007KT 9999 SCT050 01/M00 Q1005 R08/29//95 NOSIG
  • 201650Z AUTO 08005KT 9999 FEW038 SCT040 BKN050 01/00 Q1006 R08/29//95 NOSIG
  • 201620Z AUTO VRB02KT 9999 FEW034 SCT042 BKN048 02/00 Q1006 R08/29//95 NOSIG

TAF TAF LOWL
Valid from the 20 at 18:00 until the 21 at 18:00 UTC


201715Z 2018/2118 07005KT 9999 SCT020 BKN080 TX02/2018Z TNM00/2102Z
BECMG 2021/2024 25006KT 5000 -SN SCT007 BKN020
TEMPO 2100/2108 29012KT 2000 SN BKN014
PROB30
TEMPO 2101/2105 0600 SN VV006
TEMPO 2107/2115 28015G25KT 8000 -SNRA SCT015 BKN035
TEMPO 2115/2118 4000 -SHSN
No reported NOTAMs for that airfield.



MET'MAP, your aeronautical weather chart ! - Copyright ORBIFLY December 2007 - Disclaimer

ORBIFLY MET'MAP TEAM :

Programming & Development : Alexandra Zaïnal
Concept & Development : Baudouin d'Aumeries
Co-Development & Prog : Marc-Olivier Méhu
Technical & hardware support : Manuel Goepfert

Contact : metmap@orbifly.com




SOURCES & CREDITS :

   NOAA